createdAt,value
2023-05-01T00:00:59.610Z,100443.98
2023-05-01T00:03:27.160Z,100449.85
2023-05-01T00:06:00.942Z,100456.98
2023-05-01T00:08:28.449Z,100458.17
2023-05-01T00:10:56.044Z,100456.10
2023-05-01T00:13:23.991Z,100454.67
2023-05-01T00:15:51.821Z,100455.14
2023-05-01T00:18:19.282Z,100455.55
2023-05-01T00:20:46.536Z,100463.41
2023-05-01T00:23:13.907Z,100466.67
2023-05-01T00:25:41.860Z,100471.54
2023-05-01T00:28:09.156Z,100473.94
2023-05-01T00:30:36.584Z,100482.43
2023-05-01T00:33:03.920Z,100484.05
2023-05-01T00:35:31.330Z,100488.06
2023-05-01T00:37:58.635Z,100490.13
2023-05-01T00:40:26.290Z,100495.65
2023-05-01T00:42:54.256Z,100493.41
2023-05-01T00:45:21.597Z,100494.14
2023-05-01T00:47:49.084Z,100492.34
2023-05-01T00:50:16.736Z,100489.55
2023-05-01T00:52:44.113Z,100497.54
2023-05-01T00:55:12.220Z,100497.48
2023-05-01T00:57:39.604Z,100502.30
2023-05-01T01:00:10.728Z,100503.23
2023-05-01T01:02:38.035Z,100504.18
2023-05-01T01:05:05.750Z,100507.27
2023-05-01T01:08:01.410Z,100502.93
2023-05-01T01:11:13.350Z,100509.94
2023-05-01T01:13:55.555Z,100512.05
2023-05-01T01:16:48.768Z,100513.73
2023-05-01T01:19:48.951Z,100515.86
2023-05-01T01:22:23.990Z,100516.34
2023-05-01T01:25:57.999Z,100516.33
2023-05-01T01:29:12.615Z,100521.89
2023-05-01T01:32:08.962Z,100525.69
2023-05-01T01:34:47.162Z,100527.02
2023-05-01T01:37:24.514Z,100524.17
2023-05-01T01:40:04.759Z,100529.39
2023-05-01T01:42:41.819Z,100531.04
2023-05-01T01:45:20.899Z,100534.72
2023-05-01T01:47:50.629Z,100529.98
2023-05-01T01:50:22.096Z,100538.33
2023-05-01T01:52:51.508Z,100540.27
2023-05-01T01:55:24.869Z,100543.39
2023-05-01T01:57:52.895Z,100550.92
2023-05-01T02:00:21.848Z,100546.02
2023-05-01T02:02:51.866Z,100553.85
2023-05-01T02:05:21.348Z,100559.63
2023-05-01T02:07:52.125Z,100555.91
2023-05-01T02:10:22.259Z,100552.33
2023-05-01T02:12:52.767Z,100559.85
2023-05-01T02:15:21.074Z,100550.86
2023-05-01T02:17:51.984Z,100556.00
2023-05-01T02:20:21.048Z,100560.29
2023-05-01T02:22:52.703Z,100566.98
2023-05-01T02:25:20.738Z,100561.14
2023-05-01T02:28:00.331Z,100563.02
2023-05-01T02:30:27.953Z,100569.64
2023-05-01T02:32:57.008Z,100571.94
2023-05-01T02:35:24.315Z,100574.14
2023-05-01T02:37:51.920Z,100574.70
2023-05-01T02:40:19.438Z,100578.91
2023-05-01T02:42:49.275Z,100582.98
2023-05-01T02:45:20.534Z,100582.36
2023-05-01T02:47:56.117Z,100594.01
2023-05-01T02:50:24.604Z,100593.18
2023-05-01T02:52:52.946Z,100597.63
2023-05-01T02:55:32.370Z,100597.09
2023-05-01T02:57:59.893Z,100604.20
2023-05-01T03:00:27.637Z,100598.52
2023-05-01T03:02:55.120Z,100606.06
2023-05-01T03:05:22.788Z,100601.13
2023-05-01T03:07:50.819Z,100599.89
2023-05-01T03:10:18.196Z,100602.08
2023-05-01T03:12:45.542Z,100600.41
2023-05-01T03:15:13.072Z,100601.25
2023-05-01T03:17:40.429Z,100605.77
2023-05-01T03:20:10.444Z,100606.63
2023-05-01T03:22:37.778Z,100609.02
2023-05-01T03:25:05.753Z,100609.56
2023-05-01T03:27:33.330Z,100613.19
2023-05-01T03:30:00.593Z,100617.49
2023-05-01T03:32:29.145Z,100623.52
2023-05-01T03:34:56.868Z,100627.79
2023-05-01T03:37:25.400Z,100634.39
2023-05-01T03:39:53.647Z,100630.17
2023-05-01T03:42:39.461Z,100639.73
2023-05-01T03:45:11.199Z,100640.65
2023-05-01T03:47:38.727Z,100649.70
2023-05-01T03:50:08.458Z,100644.77
2023-05-01T03:52:36.982Z,100649.71
2023-05-01T03:55:04.973Z,100652.73
2023-05-01T03:57:42.416Z,100655.85
2023-05-01T04:00:11.276Z,100658.94
2023-05-01T04:02:44.817Z,100661.27
2023-05-01T04:05:15.818Z,100661.52
2023-05-01T04:07:47.264Z,100664.52
2023-05-01T04:10:14.617Z,100671.88
2023-05-01T04:12:47.501Z,100670.48
2023-05-01T04:15:15.874Z,100673.67
2023-05-01T04:17:44.350Z,100677.93
2023-05-01T04:20:11.929Z,100683.85
2023-05-01T04:22:39.292Z,100684.02
2023-05-01T04:25:08.383Z,100688.88
2023-05-01T04:27:35.703Z,100685.73
2023-05-01T04:30:03.904Z,100687.50
2023-05-01T04:32:31.328Z,100688.89
2023-05-01T04:34:58.923Z,100692.02
2023-05-01T04:37:26.649Z,100698.80
2023-05-01T04:39:55.274Z,100701.04
2023-05-01T04:42:22.784Z,100702.05
2023-05-01T04:44:50.094Z,100714.20
2023-05-01T04:47:17.257Z,100719.11
2023-05-01T04:49:45.487Z,100720.91
2023-05-01T04:52:13.068Z,100728.98
2023-05-01T04:55:00.556Z,100734.52
2023-05-01T04:57:29.710Z,100738.38
2023-05-01T04:59:57.923Z,100743.38
2023-05-01T05:02:25.625Z,100744.83
2023-05-01T05:04:53.894Z,100747.58
2023-05-01T05:07:22.802Z,100753.11
2023-05-01T05:10:19.051Z,100758.81
2023-05-01T05:12:50.697Z,100755.50
2023-05-01T05:15:17.983Z,100765.93
2023-05-01T05:17:45.316Z,100775.73
2023-05-01T05:20:14.867Z,100775.25
2023-05-01T05:22:42.596Z,100777.20
2023-05-01T05:25:22.065Z,100771.58
2023-05-01T05:27:49.485Z,100784.65
2023-05-01T05:30:16.886Z,100781.04
2023-05-01T05:32:47.282Z,100789.15
2023-05-01T05:35:15.469Z,100792.88
2023-05-01T05:37:45.348Z,100798.79
2023-05-01T05:40:13.651Z,100802.56
2023-05-01T05:42:48.937Z,100809.11
2023-05-01T05:45:16.257Z,100817.25
2023-05-01T05:47:43.587Z,100818.05
2023-05-01T05:50:11.026Z,100823.81
2023-05-01T05:52:38.476Z,100827.23
2023-05-01T05:55:06.619Z,100827.23
2023-05-01T05:57:36.809Z,100830.02
2023-05-01T06:00:09.543Z,100835.20
2023-05-01T06:02:39.935Z,100834.16
2023-05-01T06:05:09.791Z,100839.11
2023-05-01T06:07:37.467Z,100835.77
2023-05-01T06:10:05.676Z,100841.70
2023-05-01T06:12:35.226Z,100846.57
2023-05-01T06:15:06.842Z,100840.13
2023-05-01T06:17:36.972Z,100850.73
2023-05-01T06:20:05.795Z,100845.59
2023-05-01T06:22:33.229Z,100844.75
2023-05-01T06:25:12.511Z,100847.64
2023-05-01T06:27:39.785Z,100850.30
2023-05-01T06:30:09.148Z,100852.44
2023-05-01T06:32:37.496Z,100854.33
2023-05-01T06:35:05.334Z,100858.86
2023-05-01T06:37:32.546Z,100857.44
2023-05-01T06:40:00.036Z,100866.91
2023-05-01T06:42:27.300Z,100866.21
2023-05-01T06:44:56.298Z,100877.40
2023-05-01T06:47:23.725Z,100871.35
2023-05-01T06:49:51.052Z,100878.06
2023-05-01T06:52:18.393Z,100874.21
2023-05-01T06:54:45.675Z,100874.20
2023-05-01T06:57:12.951Z,100873.70
2023-05-01T06:59:40.482Z,100878.63
2023-05-01T07:02:07.876Z,100885.16
2023-05-01T07:04:35.182Z,100884.84
2023-05-01T07:07:02.804Z,100884.85
2023-05-01T07:09:30.222Z,100885.17
2023-05-01T07:11:58.673Z,100884.48
2023-05-01T07:14:25.948Z,100883.72
2023-05-01T07:16:53.758Z,100882.55
2023-05-01T07:19:21.165Z,100878.66
2023-05-01T07:21:48.491Z,100886.58
2023-05-01T07:24:16.440Z,100887.95
2023-05-01T07:26:43.668Z,100883.02
2023-05-01T07:29:11.472Z,100881.05
2023-05-01T07:31:38.813Z,100870.55
2023-05-01T07:34:06.119Z,100886.31
2023-05-01T07:36:33.618Z,100878.30
2023-05-01T07:39:00.987Z,100875.36
2023-05-01T07:41:28.392Z,100878.90
2023-05-01T07:43:58.436Z,100883.73
2023-05-01T07:46:26.542Z,100888.30
2023-05-01T07:48:53.954Z,100889.61
2023-05-01T07:51:21.508Z,100895.95
2023-05-01T07:53:49.517Z,100890.69
2023-05-01T07:56:16.879Z,100896.79
2023-05-01T07:58:44.281Z,100893.95
2023-05-01T08:01:11.907Z,100890.42
2023-05-01T08:03:39.273Z,100897.47
2023-05-01T08:06:07.246Z,100904.40
2023-05-01T08:08:34.694Z,100904.45
2023-05-01T08:11:02.239Z,100907.29
2023-05-01T08:13:29.556Z,100912.15
2023-05-01T08:16:02.144Z,100917.29
2023-05-01T08:18:30.612Z,100916.33
2023-05-01T08:20:57.921Z,100919.44
2023-05-01T08:23:25.117Z,100916.80
2023-05-01T08:25:52.580Z,100924.31
2023-05-01T08:28:20.727Z,100919.70
2023-05-01T08:30:48.917Z,100913.95
2023-05-01T08:33:16.571Z,100908.23
2023-05-01T08:35:43.860Z,100921.83
2023-05-01T08:38:12.104Z,100928.40
2023-05-01T08:40:41.609Z,100921.73
2023-05-01T08:43:09.228Z,100924.39
2023-05-01T08:45:37.898Z,100935.83
2023-05-01T08:48:10.173Z,100930.42
2023-05-01T08:50:38.997Z,100927.81
2023-05-01T08:53:07.763Z,100921.92
2023-05-01T08:55:36.327Z,100939.21
2023-05-01T08:58:04.756Z,100932.80
2023-05-01T09:00:33.854Z,100934.60
2023-05-01T09:03:02.522Z,100934.50
2023-05-01T09:05:32.468Z,100934.33
2023-05-01T09:08:00.464Z,100933.90
2023-05-01T09:10:30.659Z,100930.92
2023-05-01T09:13:06.536Z,100938.96
2023-05-01T09:15:33.851Z,100937.36
2023-05-01T09:18:03.585Z,100938.70
2023-05-01T09:20:31.992Z,100938.67
2023-05-01T09:22:59.441Z,100929.89
2023-05-01T09:25:26.912Z,100927.70
2023-05-01T09:27:56.710Z,100938.05
2023-05-01T09:30:33.477Z,100923.86
2023-05-01T09:33:09.530Z,100942.22
2023-05-01T09:35:55.552Z,100941.73
2023-05-01T09:38:28.581Z,100935.75
2023-05-01T09:41:04.357Z,100938.55
2023-05-01T09:43:31.844Z,100946.84
2023-05-01T09:46:12.520Z,100940.94
2023-05-01T09:48:39.929Z,100939.11
2023-05-01T09:51:29.571Z,100928.25
2023-05-01T09:53:59.939Z,100918.61
2023-05-01T09:56:28.977Z,100918.15
2023-05-01T09:58:59.609Z,100925.00
2023-05-01T10:01:45.835Z,100933.52
2023-05-01T10:04:13.938Z,100939.50
2023-05-01T10:06:41.681Z,100935.05
2023-05-01T10:09:16.857Z,100932.66
2023-05-01T10:11:48.929Z,100925.88
2023-05-01T10:14:16.221Z,100926.98
2023-05-01T10:16:44.485Z,100935.91
2023-05-01T10:19:13.311Z,100924.58
2023-05-01T10:21:40.892Z,100928.75
2023-05-01T10:24:09.607Z,100941.11
2023-05-01T10:26:37.276Z,100934.96
2023-05-01T10:29:04.646Z,100932.73
2023-05-01T10:31:32.492Z,100932.46
2023-05-01T10:34:01.445Z,100926.55
2023-05-01T10:36:47.288Z,100927.07
2023-05-01T10:39:34.920Z,100934.67
2023-05-01T10:42:13.496Z,100940.23
2023-05-01T10:44:42.232Z,100938.38
2023-05-01T10:47:25.103Z,100932.88
2023-05-01T10:50:08.579Z,100934.04
2023-05-01T10:53:15.134Z,100941.17
2023-05-01T10:55:52.841Z,100940.29
2023-05-01T10:58:40.434Z,100941.00
2023-05-01T11:01:33.209Z,100937.81
2023-05-01T11:04:26.878Z,100937.19
2023-05-01T11:07:05.462Z,100933.61
2023-05-01T11:09:56.955Z,100939.97
2023-05-01T11:12:45.463Z,100939.64
2023-05-01T11:15:28.698Z,100933.73
2023-05-01T11:17:57.377Z,100928.90
2023-05-01T11:20:24.618Z,100925.20
2023-05-01T11:22:54.456Z,100920.63
2023-05-01T11:25:28.477Z,100931.96
2023-05-01T11:28:01.806Z,100932.96
2023-05-01T11:30:41.856Z,100921.58
2023-05-01T11:33:10.769Z,100922.29
2023-05-01T11:35:38.867Z,100920.11
2023-05-01T11:38:06.324Z,100909.42
2023-05-01T11:40:34.416Z,100914.71
2023-05-01T11:43:09.070Z,100919.11
2023-05-01T11:45:37.337Z,100916.89
2023-05-01T11:48:15.664Z,100912.16
2023-05-01T11:50:43.052Z,100914.55
2023-05-01T11:53:15.263Z,100912.66
2023-05-01T11:55:42.969Z,100911.32
2023-05-01T11:58:10.804Z,100910.48
2023-05-01T12:00:42.886Z,100904.33
2023-05-01T12:03:14.945Z,100904.17
2023-05-01T12:05:44.725Z,100899.55
2023-05-01T12:08:13.018Z,100897.77
2023-05-01T12:10:42.886Z,100899.43
2023-05-01T12:13:13.148Z,100887.14
2023-05-01T12:15:48.175Z,100891.13
2023-05-01T12:18:17.354Z,100894.38
2023-05-01T12:20:48.103Z,100890.29
2023-05-01T12:23:16.752Z,100888.42
2023-05-01T12:25:45.533Z,100884.70
2023-05-01T12:28:19.238Z,100888.31
2023-05-01T12:30:48.555Z,100889.31
2023-05-01T12:33:18.879Z,100881.45
2023-05-01T12:35:48.932Z,100884.02
2023-05-01T12:38:21.439Z,100881.31
2023-05-01T12:41:00.015Z,100877.79
2023-05-01T12:43:35.884Z,100885.30
2023-05-01T12:46:05.580Z,100890.14
2023-05-01T12:48:33.744Z,100890.43
2023-05-01T12:51:01.326Z,100891.13
2023-05-01T12:53:29.393Z,100889.34
2023-05-01T12:55:58.514Z,100887.49
2023-05-01T12:58:38.430Z,100887.35
2023-05-01T13:01:06.484Z,100887.48
2023-05-01T13:03:36.242Z,100893.64
2023-05-01T13:06:06.141Z,100886.25
2023-05-01T13:08:37.279Z,100886.20
2023-05-01T13:11:14.869Z,100883.02
2023-05-01T13:13:47.272Z,100876.69
2023-05-01T13:16:16.608Z,100874.48
2023-05-01T13:18:52.297Z,100882.26
2023-05-01T13:21:22.296Z,100888.14
2023-05-01T13:23:55.383Z,100881.03
2023-05-01T13:26:32.229Z,100881.30
2023-05-01T13:29:03.161Z,100887.00
2023-05-01T13:31:30.809Z,100884.02
2023-05-01T13:33:59.233Z,100889.59
2023-05-01T13:36:32.692Z,100886.61
2023-05-01T13:39:00.259Z,100886.71
2023-05-01T13:41:29.417Z,100889.29
2023-05-01T13:43:57.335Z,100880.56
2023-05-01T13:46:28.521Z,100889.21
2023-05-01T13:49:07.609Z,100896.98
2023-05-01T13:51:42.141Z,100891.11
2023-05-01T13:54:11.003Z,100891.36
2023-05-01T13:56:40.680Z,100890.54
2023-05-01T13:59:08.899Z,100889.14
2023-05-01T14:01:42.498Z,100892.65
2023-05-01T14:04:12.653Z,100887.52
2023-05-01T14:06:44.528Z,100886.17
2023-05-01T14:09:11.903Z,100892.45
2023-05-01T14:11:47.797Z,100893.05
2023-05-01T14:14:16.584Z,100894.08
2023-05-01T14:16:48.473Z,100891.45
2023-05-01T14:19:17.724Z,100891.71
2023-05-01T14:21:45.278Z,100892.95
2023-05-01T14:24:15.554Z,100889.31
2023-05-01T14:26:43.834Z,100891.21
2023-05-01T14:29:27.378Z,100896.41
2023-05-01T14:31:55.784Z,100892.06
2023-05-01T14:34:25.049Z,100893.28
2023-05-01T14:36:55.323Z,100891.15
2023-05-01T14:39:22.841Z,100889.48
2023-05-01T14:41:50.059Z,100898.48
2023-05-01T14:44:20.294Z,100895.70
2023-05-01T14:46:50.836Z,100892.95
2023-05-01T14:49:24.759Z,100899.77
2023-05-01T14:51:53.714Z,100893.34
2023-05-01T14:54:21.155Z,100893.02
2023-05-01T14:56:49.061Z,100892.36
2023-05-01T14:59:16.682Z,100891.84
2023-05-01T15:01:44.307Z,100891.30
2023-05-01T15:04:12.084Z,100886.25
2023-05-01T15:06:39.582Z,100887.58
2023-05-01T15:09:06.987Z,100882.35
2023-05-01T15:11:34.376Z,100885.88
2023-05-01T15:14:02.095Z,100883.41
2023-05-01T15:16:30.449Z,100883.85
2023-05-01T15:18:58.240Z,100890.46
2023-05-01T15:21:25.533Z,100879.85
2023-05-01T15:23:52.970Z,100880.96
2023-05-01T15:26:20.558Z,100877.85
2023-05-01T15:28:47.924Z,100883.05
2023-05-01T15:31:15.308Z,100882.92
2023-05-01T15:33:42.751Z,100885.77
2023-05-01T15:36:10.200Z,100882.31
2023-05-01T15:38:37.543Z,100884.45
2023-05-01T15:41:05.162Z,100884.65
2023-05-01T15:43:32.874Z,100884.38
2023-05-01T15:46:00.289Z,100886.51
2023-05-01T15:48:27.740Z,100881.66
2023-05-01T15:50:55.051Z,100880.11
2023-05-01T15:53:22.927Z,100880.23
2023-05-01T15:55:51.138Z,100886.54
2023-05-01T15:58:22.525Z,100884.50
2023-05-01T16:00:50.302Z,100884.66
2023-05-01T16:03:18.130Z,100883.42
2023-05-01T16:05:46.659Z,100887.30
2023-05-01T16:08:14.113Z,100879.65
2023-05-01T16:10:41.747Z,100883.40
2023-05-01T16:13:09.136Z,100887.20
2023-05-01T16:15:37.654Z,100889.71
2023-05-01T16:18:05.878Z,100890.25
2023-05-01T16:20:42.779Z,100892.42
2023-05-01T16:23:11.885Z,100893.31
2023-05-01T16:25:43.113Z,100899.11
2023-05-01T16:28:12.456Z,100897.66
2023-05-01T16:30:43.763Z,100901.16
2023-05-01T16:33:20.475Z,100897.80
2023-05-01T16:35:48.988Z,100896.45
2023-05-01T16:38:18.092Z,100901.41
2023-05-01T16:40:50.037Z,100903.74
2023-05-01T16:43:17.510Z,100899.59
2023-05-01T16:45:46.417Z,100898.69
2023-05-01T16:48:24.342Z,100900.48
2023-05-01T16:50:52.229Z,100906.04
2023-05-01T16:53:21.056Z,100908.16
2023-05-01T16:55:48.647Z,100910.36
2023-05-01T16:58:16.353Z,100915.67
2023-05-01T17:00:44.142Z,100917.52
2023-05-01T17:03:13.335Z,100919.40
2023-05-01T17:05:41.018Z,100923.02
2023-05-01T17:08:08.430Z,100928.02
2023-05-01T17:10:39.022Z,100925.04
2023-05-01T17:13:07.341Z,100928.95
2023-05-01T17:15:34.993Z,100931.85
2023-05-01T17:18:02.557Z,100934.11
2023-05-01T17:20:30.115Z,100939.58
2023-05-01T17:22:58.312Z,100945.69
2023-05-01T17:25:26.001Z,100947.89
2023-05-01T17:27:54.277Z,100951.21
2023-05-01T17:30:22.025Z,100952.63
2023-05-01T17:32:49.828Z,100954.14
2023-05-01T17:35:17.656Z,100955.10
2023-05-01T17:37:45.334Z,100955.11
2023-05-01T17:40:13.185Z,100962.90
2023-05-01T17:42:41.420Z,100964.64
2023-05-01T17:45:09.995Z,100971.59
2023-05-01T17:47:42.261Z,100974.23
2023-05-01T17:50:12.483Z,100982.85
2023-05-01T17:52:41.636Z,100980.23
2023-05-01T17:55:09.324Z,100988.03
2023-05-01T17:57:39.740Z,100986.66
2023-05-01T18:00:11.252Z,100991.55
2023-05-01T18:02:44.103Z,100995.48
2023-05-01T18:05:12.887Z,100994.40
2023-05-01T18:07:40.751Z,100993.38
2023-05-01T18:10:09.555Z,100989.80
2023-05-01T18:12:36.977Z,100992.14
2023-05-01T18:15:05.116Z,101005.98
2023-05-01T18:17:32.495Z,101003.17
2023-05-01T18:20:00.203Z,101006.21
2023-05-01T18:22:28.654Z,101009.93
2023-05-01T18:24:56.251Z,101013.08
2023-05-01T18:27:25.503Z,101012.17
2023-05-01T18:29:53.507Z,101018.05
2023-05-01T18:32:21.182Z,101018.81
2023-05-01T18:34:51.031Z,101023.98
2023-05-01T18:37:18.494Z,101025.19
2023-05-01T18:39:46.465Z,101025.44
2023-05-01T18:42:13.914Z,101026.86
2023-05-01T18:44:41.215Z,101028.02
2023-05-01T18:47:08.559Z,101031.25
2023-05-01T18:49:36.190Z,101032.50
2023-05-01T18:52:04.025Z,101035.65
2023-05-01T18:54:31.652Z,101034.63
2023-05-01T18:56:59.029Z,101033.42
2023-05-01T18:59:30.411Z,101032.43
2023-05-01T19:01:58.131Z,101035.90
2023-05-01T19:04:25.569Z,101039.71
2023-05-01T19:06:52.956Z,101046.73
2023-05-01T19:09:20.598Z,101050.50
2023-05-01T19:11:48.631Z,101055.77
2023-05-01T19:14:16.011Z,101054.92
2023-05-01T19:16:43.579Z,101053.02
2023-05-01T19:19:11.128Z,101057.94
2023-05-01T19:21:38.486Z,101064.25
2023-05-01T19:24:06.830Z,101061.39
2023-05-01T19:26:34.303Z,101062.59
2023-05-01T19:29:01.620Z,101059.07
2023-05-01T19:31:29.079Z,101063.39
2023-05-01T19:33:56.517Z,101068.54
2023-05-01T19:36:24.030Z,101067.60
2023-05-01T19:38:51.584Z,101069.23
2023-05-01T19:41:18.959Z,101068.54
2023-05-01T19:43:46.287Z,101064.98
2023-05-01T19:46:13.907Z,101065.08
2023-05-01T19:48:41.523Z,101070.48
2023-05-01T19:51:08.797Z,101064.39
2023-05-01T19:53:36.329Z,101067.38
2023-05-01T19:56:03.807Z,101070.63
2023-05-01T19:58:31.578Z,101075.51
2023-05-01T20:01:01.777Z,101080.69
2023-05-01T20:03:29.182Z,101075.12
2023-05-01T20:05:56.548Z,101080.14
2023-05-01T20:08:23.845Z,101085.98
2023-05-01T20:10:51.153Z,101088.00
2023-05-01T20:13:18.490Z,101094.93
2023-05-01T20:15:45.913Z,101098.14
2023-05-01T20:18:13.639Z,101095.52
2023-05-01T20:20:41.340Z,101103.73
2023-05-01T20:23:16.536Z,101099.79
2023-05-01T20:25:45.913Z,101102.93
2023-05-01T20:28:14.248Z,101105.02
2023-05-01T20:30:44.136Z,101113.27
2023-05-01T20:33:13.187Z,101114.56
2023-05-01T20:35:40.714Z,101119.86
2023-05-01T20:38:07.963Z,101119.28
2023-05-01T20:40:39.411Z,101114.00
2023-05-01T20:43:06.913Z,101121.83
2023-05-01T20:45:34.464Z,101125.42
2023-05-01T20:48:02.027Z,101119.78
2023-05-01T20:50:29.389Z,101122.36
2023-05-01T20:52:56.951Z,101122.95
2023-05-01T20:55:24.463Z,101124.22
2023-05-01T20:57:51.836Z,101124.84
2023-05-01T21:00:19.204Z,101123.39
2023-05-01T21:02:46.754Z,101122.48
2023-05-01T21:05:15.739Z,101117.02
2023-05-01T21:07:43.235Z,101120.80
2023-05-01T21:10:13.748Z,101119.61
2023-05-01T21:12:42.053Z,101118.25
2023-05-01T21:15:11.096Z,101122.23
2023-05-01T21:17:40.231Z,101119.80
2023-05-01T21:20:15.191Z,101127.89
2023-05-01T21:22:45.047Z,101128.59
2023-05-01T21:25:15.388Z,101128.80
2023-05-01T21:27:42.784Z,101136.54
2023-05-01T21:30:15.506Z,101140.80
2023-05-01T21:32:43.017Z,101143.70
2023-05-01T21:35:11.493Z,101146.27
2023-05-01T21:37:39.826Z,101152.17
2023-05-01T21:40:12.066Z,101154.96
2023-05-01T21:42:39.603Z,101158.48
2023-05-01T21:45:09.404Z,101164.80
2023-05-01T21:47:41.147Z,101157.21
2023-05-01T21:50:12.298Z,101163.77
2023-05-01T21:52:40.868Z,101162.11
2023-05-01T21:55:10.524Z,101164.38
2023-05-01T21:57:39.372Z,101156.75
2023-05-01T22:00:10.856Z,101155.31
2023-05-01T22:02:44.863Z,101154.85
2023-05-01T22:05:17.822Z,101154.98
2023-05-01T22:07:46.512Z,101160.58
2023-05-01T22:10:16.628Z,101155.77
2023-05-01T22:12:45.557Z,101158.58
2023-05-01T22:15:14.986Z,101157.40
2023-05-01T22:17:42.925Z,101162.52
2023-05-01T22:20:10.907Z,101165.27
2023-05-01T22:22:40.465Z,101170.27
2023-05-01T22:25:09.519Z,101168.30
2023-05-01T22:27:37.797Z,101161.45
2023-05-01T22:30:05.906Z,101161.86
2023-05-01T22:32:33.444Z,101161.46
2023-05-01T22:35:00.859Z,101157.88
2023-05-01T22:37:28.362Z,101161.25
2023-05-01T22:39:55.573Z,101161.09
2023-05-01T22:42:22.976Z,101165.10
2023-05-01T22:44:50.429Z,101162.30
2023-05-01T22:47:18.071Z,101164.92
2023-05-01T22:49:45.455Z,101166.70
2023-05-01T22:52:12.853Z,101164.52
2023-05-01T22:54:40.245Z,101162.98
2023-05-01T22:57:07.784Z,101160.86
2023-05-01T22:59:35.166Z,101167.20
2023-05-01T23:02:05.216Z,101158.75
2023-05-01T23:04:32.888Z,101161.12
2023-05-01T23:07:00.360Z,101159.33
2023-05-01T23:09:31.578Z,101162.56
2023-05-01T23:11:58.868Z,101165.19
2023-05-01T23:14:26.418Z,101158.48
2023-05-01T23:16:54.042Z,101163.67
2023-05-01T23:19:23.994Z,101164.11
2023-05-01T23:22:08.195Z,101161.70
2023-05-01T23:24:42.731Z,101161.00
2023-05-01T23:27:11.275Z,101154.65
2023-05-01T23:29:40.664Z,101156.44
2023-05-01T23:32:23.154Z,101152.73
2023-05-01T23:34:51.865Z,101150.52
2023-05-01T23:37:19.922Z,101154.70
2023-05-01T23:39:48.028Z,101150.56
2023-05-01T23:42:15.501Z,101148.87
2023-05-01T23:44:42.895Z,101153.13
2023-05-01T23:47:10.584Z,101146.31
2023-05-01T23:49:38.094Z,101151.94
2023-05-01T23:52:06.462Z,101146.58
2023-05-01T23:54:33.931Z,101146.95
2023-05-01T23:57:01.963Z,101145.23
2023-05-01T23:59:29.420Z,101152.25
